createdAt,value
2023-11-12T00:01:45.286Z,54.78
2023-11-12T00:04:17.286Z,54.77
2023-11-12T00:06:48.966Z,54.82
2023-11-12T00:09:20.336Z,54.78
2023-11-12T00:11:51.768Z,54.85
2023-11-12T00:14:22.927Z,54.87
2023-11-12T00:16:54.217Z,54.93
2023-11-12T00:19:25.501Z,54.92
2023-11-12T00:21:58.461Z,54.91
2023-11-12T00:24:30.080Z,55.10
2023-11-12T00:27:01.192Z,55.04
2023-11-12T00:29:32.978Z,55.21
2023-11-12T00:32:05.056Z,55.22
2023-11-12T00:34:37.486Z,55.20
2023-11-12T00:37:08.959Z,55.27
2023-11-12T00:39:44.991Z,55.28
2023-11-12T00:42:16.456Z,55.38
2023-11-12T00:44:48.118Z,55.33
2023-11-12T00:47:19.145Z,55.33
2023-11-12T00:49:50.184Z,55.43
2023-11-12T00:52:21.190Z,55.39
2023-11-12T00:54:52.324Z,55.42
2023-11-12T00:57:23.888Z,55.36
2023-11-12T00:59:55.371Z,55.38
2023-11-12T01:02:28.976Z,55.32
2023-11-12T01:05:00.699Z,55.19
2023-11-12T01:07:31.930Z,55.24
2023-11-12T01:10:03.412Z,55.18
2023-11-12T01:12:34.914Z,55.04
2023-11-12T01:15:07.493Z,55.07
2023-11-12T01:17:39.883Z,54.85
2023-11-12T01:20:14.119Z,55.11
2023-11-12T01:22:45.997Z,55.11
2023-11-12T01:25:17.673Z,55.16
2023-11-12T01:27:49.240Z,55.16
2023-11-12T01:30:21.149Z,55.34
2023-11-12T01:32:53.513Z,55.41
2023-11-12T01:35:24.720Z,55.37
2023-11-12T01:37:56.123Z,55.50
2023-11-12T01:40:27.347Z,55.55
2023-11-12T01:42:58.482Z,55.64
2023-11-12T01:45:29.788Z,55.77
2023-11-12T01:48:01.844Z,55.74
2023-11-12T01:50:33.619Z,55.67
2023-11-12T01:53:05.837Z,55.74
2023-11-12T01:55:38.045Z,55.80
2023-11-12T01:58:11.175Z,55.80
2023-11-12T02:00:42.546Z,55.92
2023-11-12T02:03:18.455Z,55.90
2023-11-12T02:05:49.638Z,55.96
2023-11-12T02:08:23.236Z,55.87
2023-11-12T02:10:54.968Z,55.99
2023-11-12T02:13:26.543Z,55.91
2023-11-12T02:15:58.446Z,55.87
2023-11-12T02:18:29.876Z,55.86
2023-11-12T02:21:02.266Z,55.80
2023-11-12T02:23:34.384Z,55.88
2023-11-12T02:26:05.645Z,55.77
2023-11-12T02:28:37.041Z,55.83
2023-11-12T02:31:08.472Z,55.88
2023-11-12T02:33:40.503Z,55.81
2023-11-12T02:36:12.574Z,55.88
2023-11-12T02:38:43.879Z,55.74
2023-11-12T02:41:14.925Z,55.89
2023-11-12T02:43:47.269Z,56.14
2023-11-12T02:46:18.759Z,56.10
2023-11-12T02:49:13.612Z,56.14
2023-11-12T02:51:46.459Z,56.09
2023-11-12T02:54:18.546Z,56.21
2023-11-12T02:56:49.869Z,56.21
2023-11-12T02:59:21.464Z,56.24
2023-11-12T03:01:52.820Z,56.43
2023-11-12T03:04:23.962Z,56.55
2023-11-12T03:06:55.231Z,56.49
2023-11-12T03:09:26.920Z,56.58
2023-11-12T03:11:58.747Z,56.77
2023-11-12T03:14:29.986Z,56.78
2023-11-12T03:17:00.996Z,56.83
2023-11-12T03:19:32.458Z,57.02
2023-11-12T03:22:03.693Z,56.89
2023-11-12T03:24:36.878Z,56.97
2023-11-12T03:27:09.686Z,57.10
2023-11-12T03:29:40.702Z,57.04
2023-11-12T03:32:12.021Z,57.18
2023-11-12T03:34:43.395Z,57.21
2023-11-12T03:37:14.908Z,57.21
2023-11-12T03:39:46.995Z,57.07
2023-11-12T03:42:18.708Z,57.26
2023-11-12T03:44:50.730Z,57.21
2023-11-12T03:47:22.190Z,57.18
2023-11-12T03:49:53.730Z,57.20
2023-11-12T03:52:25.134Z,57.34
2023-11-12T03:54:56.705Z,57.35
2023-11-12T03:57:28.484Z,57.44
2023-11-12T03:59:59.690Z,57.54
2023-11-12T04:02:30.685Z,57.31
2023-11-12T04:05:02.760Z,57.38
2023-11-12T04:07:33.992Z,57.06
2023-11-12T04:10:06.737Z,57.19
2023-11-12T04:12:38.070Z,57.27
2023-11-12T04:15:10.837Z,57.42
2023-11-12T04:17:42.021Z,57.34
2023-11-12T04:20:16.198Z,57.24
2023-11-12T04:22:47.940Z,57.31
2023-11-12T04:25:19.744Z,57.43
2023-11-12T04:27:51.066Z,57.49
2023-11-12T04:30:22.636Z,57.51
2023-11-12T04:32:53.964Z,57.44
2023-11-12T04:35:24.950Z,57.47
2023-11-12T04:37:56.207Z,57.40
2023-11-12T04:40:27.451Z,57.42
2023-11-12T04:42:59.016Z,57.35
2023-11-12T04:45:30.335Z,57.39
2023-11-12T04:48:01.783Z,57.30
2023-11-12T04:50:33.032Z,57.51
2023-11-12T04:53:04.116Z,57.45
2023-11-12T04:55:35.418Z,57.67
2023-11-12T04:58:08.373Z,57.78
2023-11-12T05:00:42.226Z,57.70
2023-11-12T05:03:13.448Z,57.66
2023-11-12T05:05:44.884Z,57.69
2023-11-12T05:08:16.081Z,57.58
2023-11-12T05:10:47.300Z,57.55
2023-11-12T05:13:18.451Z,57.40
2023-11-12T05:15:49.444Z,57.28
2023-11-12T05:18:20.982Z,57.23
2023-11-12T05:20:52.386Z,57.08
2023-11-12T05:23:23.878Z,57.13
2023-11-12T05:25:56.250Z,57.00
2023-11-12T05:28:28.739Z,57.26
2023-11-12T05:31:00.251Z,57.29
2023-11-12T05:33:32.255Z,57.36
2023-11-12T05:36:04.198Z,57.35
2023-11-12T05:38:35.728Z,57.22
2023-11-12T05:41:07.629Z,57.16
2023-11-12T05:43:38.923Z,57.26
2023-11-12T05:46:10.292Z,57.14
2023-11-12T05:48:41.517Z,57.04
2023-11-12T05:51:12.676Z,57.00
2023-11-12T05:53:44.227Z,57.01
2023-11-12T05:56:15.777Z,56.96
2023-11-12T05:58:47.222Z,56.88
2023-11-12T06:01:20.395Z,56.97
2023-11-12T06:03:51.785Z,56.99
2023-11-12T06:06:23.394Z,56.84
2023-11-12T06:08:54.764Z,56.67
2023-11-12T06:11:26.589Z,56.44
2023-11-12T06:13:57.999Z,56.35
2023-11-12T06:16:29.851Z,56.22
2023-11-12T06:19:01.219Z,56.09
2023-11-12T06:21:32.232Z,56.22
2023-11-12T06:24:05.834Z,56.20
2023-11-12T06:26:37.784Z,56.08
2023-11-12T06:29:10.190Z,55.93
2023-11-12T06:31:41.911Z,55.93
2023-11-12T06:34:13.061Z,55.95
2023-11-12T06:36:44.328Z,55.89
2023-11-12T06:39:15.825Z,55.66
2023-11-12T06:41:47.239Z,55.54
2023-11-12T06:44:18.250Z,55.61
2023-11-12T06:46:50.051Z,55.48
2023-11-12T06:49:21.392Z,57.57
2023-11-12T06:51:52.649Z,57.58
2023-11-12T06:54:23.971Z,56.48
2023-11-12T06:56:56.462Z,55.37
2023-11-12T06:59:29.161Z,55.38
2023-11-12T07:02:00.547Z,54.98
2023-11-12T07:04:32.012Z,54.40
2023-11-12T07:07:13.871Z,53.89
2023-11-12T07:09:48.493Z,53.66
2023-11-12T07:12:19.744Z,53.11
2023-11-12T07:14:51.117Z,52.93
2023-11-12T07:17:22.558Z,52.93
2023-11-12T07:19:54.352Z,52.84
2023-11-12T07:22:26.376Z,53.08
2023-11-12T07:24:58.956Z,52.96
2023-11-12T07:27:33.347Z,53.09
2023-11-12T07:30:04.982Z,52.99
2023-11-12T07:32:35.930Z,52.88
2023-11-12T07:35:09.577Z,52.98
2023-11-12T07:37:42.282Z,52.85
2023-11-12T07:40:16.989Z,52.71
2023-11-12T07:42:48.482Z,52.65
2023-11-12T07:45:25.395Z,52.68
2023-11-12T07:47:59.961Z,52.47
2023-11-12T07:50:31.394Z,52.46
2023-11-12T07:53:04.585Z,52.45
2023-11-12T07:55:35.700Z,52.41
2023-11-12T07:58:07.252Z,52.61
2023-11-12T08:00:38.441Z,52.34
2023-11-12T08:03:09.770Z,52.31
2023-11-12T08:05:42.082Z,52.19
2023-11-12T08:08:13.195Z,51.76
2023-11-12T08:10:44.384Z,51.77
2023-11-12T08:13:17.912Z,51.30
2023-11-12T08:15:49.644Z,50.95
2023-11-12T08:18:21.190Z,51.51
2023-11-12T08:20:52.683Z,51.48
2023-11-12T08:23:23.852Z,51.55
2023-11-12T08:25:56.367Z,51.29
2023-11-12T08:28:28.499Z,50.27
2023-11-12T08:30:59.588Z,48.59
2023-11-12T08:33:30.797Z,47.79
2023-11-12T08:36:02.144Z,47.03
2023-11-12T08:38:32.985Z,46.69
2023-11-12T08:41:05.823Z,45.60
2023-11-12T08:43:37.068Z,43.63
2023-11-12T08:46:08.635Z,43.85
2023-11-12T08:48:44.132Z,44.50
2023-11-12T08:51:16.238Z,44.08
2023-11-12T08:53:47.624Z,44.32
2023-11-12T08:56:18.815Z,44.14
2023-11-12T08:58:50.060Z,43.54
2023-11-12T09:01:21.243Z,43.38
2023-11-12T09:03:53.587Z,43.21
2023-11-12T09:06:25.137Z,42.47
2023-11-12T09:08:56.666Z,41.92
2023-11-12T09:11:28.049Z,42.25
2023-11-12T09:14:02.016Z,42.57
2023-11-12T09:16:33.405Z,42.60
2023-11-12T09:19:07.121Z,42.36
2023-11-12T09:21:38.285Z,42.32
2023-11-12T09:24:11.513Z,42.18
2023-11-12T09:26:43.511Z,41.71
2023-11-12T09:29:14.574Z,42.12
2023-11-12T09:31:45.699Z,41.60
2023-11-12T09:34:17.319Z,41.19
2023-11-12T09:36:48.485Z,40.16
2023-11-12T09:39:20.998Z,40.67
2023-11-12T09:41:57.066Z,40.51
2023-11-12T09:44:32.434Z,40.11
2023-11-12T09:47:30.885Z,39.50
2023-11-12T09:50:07.518Z,40.08
2023-11-12T09:52:39.261Z,39.14
2023-11-12T09:55:12.261Z,40.18
2023-11-12T09:57:43.408Z,40.11
2023-11-12T10:00:17.895Z,40.03
2023-11-12T10:02:49.396Z,40.17
2023-11-12T10:05:20.630Z,40.20
2023-11-12T10:07:51.840Z,39.85
2023-11-12T10:10:28.276Z,39.80
2023-11-12T10:13:00.168Z,39.25
2023-11-12T10:15:35.071Z,39.52
2023-11-12T10:18:07.586Z,39.18
2023-11-12T10:20:42.070Z,38.65
2023-11-12T10:23:32.617Z,38.99
2023-11-12T10:26:14.456Z,38.51
2023-11-12T10:28:45.696Z,38.99
2023-11-12T10:31:16.869Z,38.88
2023-11-12T10:34:02.570Z,39.31
2023-11-12T10:36:33.974Z,38.96
2023-11-12T10:39:12.547Z,38.65
2023-11-12T10:41:43.876Z,39.04
2023-11-12T10:44:16.045Z,38.98
2023-11-12T10:46:54.182Z,38.75
2023-11-12T10:49:27.462Z,38.62
2023-11-12T10:51:59.283Z,38.63
2023-11-12T10:54:34.002Z,38.79
2023-11-12T10:57:07.915Z,38.61
2023-11-12T10:59:42.273Z,38.61
2023-11-12T11:02:19.975Z,38.27
2023-11-12T11:04:51.605Z,38.34
2023-11-12T11:07:24.694Z,38.06
2023-11-12T11:09:56.169Z,37.68
2023-11-12T11:12:27.372Z,37.39
2023-11-12T11:15:19.198Z,37.58
2023-11-12T11:17:50.440Z,37.40
2023-11-12T11:20:22.033Z,37.49
2023-11-12T11:22:52.961Z,37.35
2023-11-12T11:25:27.868Z,36.96
2023-11-12T11:28:22.474Z,37.36
2023-11-12T11:31:14.958Z,37.17
2023-11-12T11:33:52.656Z,36.95
2023-11-12T11:36:25.545Z,36.96
2023-11-12T11:39:30.213Z,36.84
2023-11-12T11:42:16.694Z,36.73
2023-11-12T11:44:56.437Z,36.82
2023-11-12T11:47:29.406Z,36.29
2023-11-12T11:50:27.222Z,36.67
2023-11-12T11:53:18.525Z,36.41
2023-11-12T11:55:56.060Z,36.97
2023-11-12T11:58:31.515Z,36.22
2023-11-12T12:01:03.240Z,36.56
2023-11-12T12:03:34.328Z,36.31
2023-11-12T12:06:18.111Z,36.43
2023-11-12T12:08:58.912Z,36.78
2023-11-12T12:11:29.860Z,36.48
2023-11-12T12:14:01.779Z,36.63
2023-11-12T12:16:33.982Z,36.79
2023-11-12T12:19:05.450Z,36.44
2023-11-12T12:21:37.676Z,36.47
2023-11-12T12:24:10.562Z,36.25
2023-11-12T12:26:42.392Z,36.15
2023-11-12T12:29:18.000Z,36.20
2023-11-12T12:31:50.651Z,36.00
2023-11-12T12:34:25.657Z,35.83
2023-11-12T12:37:06.680Z,35.61
2023-11-12T12:39:55.839Z,36.05
2023-11-12T12:42:29.549Z,36.05
2023-11-12T12:45:00.972Z,36.00
2023-11-12T12:47:37.894Z,35.74
2023-11-12T12:50:26.833Z,35.42
2023-11-12T12:53:15.136Z,36.15
2023-11-12T12:55:47.656Z,36.64
2023-11-12T12:58:20.771Z,35.83
2023-11-12T13:00:54.771Z,35.35
2023-11-12T13:03:31.539Z,35.97
2023-11-12T13:06:02.890Z,36.63
2023-11-12T13:08:34.883Z,36.87
2023-11-12T13:11:06.780Z,36.75
2023-11-12T13:13:38.329Z,37.10
2023-11-12T13:16:12.413Z,37.37
2023-11-12T13:18:43.664Z,37.32
2023-11-12T13:21:15.474Z,37.16
2023-11-12T13:23:50.479Z,36.84
2023-11-12T13:26:23.422Z,36.67
2023-11-12T13:28:58.024Z,36.73
2023-11-12T13:34:01.943Z,37.04
2023-11-12T13:36:33.777Z,36.94
2023-11-12T13:39:05.995Z,36.50
2023-11-12T13:41:38.795Z,36.13
2023-11-12T13:44:10.562Z,36.27
2023-11-12T13:46:42.620Z,36.31
2023-11-12T13:49:14.046Z,35.81
2023-11-12T13:51:46.475Z,36.07
2023-11-12T13:54:17.917Z,36.49
2023-11-12T13:56:50.504Z,36.88
2023-11-12T13:59:22.345Z,37.19
2023-11-12T14:01:53.720Z,36.50
2023-11-12T14:04:27.982Z,36.46
2023-11-12T14:06:59.450Z,36.95
2023-11-12T14:09:34.399Z,36.77
2023-11-12T14:12:08.258Z,37.08
2023-11-12T14:14:39.682Z,36.91
2023-11-12T14:17:11.038Z,36.85
2023-11-12T14:19:44.244Z,36.95
2023-11-12T14:22:15.879Z,37.33
2023-11-12T14:24:47.080Z,37.81
2023-11-12T14:27:18.537Z,37.46
2023-11-12T14:29:51.183Z,37.54
2023-11-12T14:32:22.280Z,37.47
2023-11-12T14:34:53.138Z,37.35
2023-11-12T14:37:26.092Z,37.87
2023-11-12T14:39:59.100Z,37.61
2023-11-12T14:42:31.385Z,37.50
2023-11-12T14:45:02.693Z,37.70
2023-11-12T14:47:36.684Z,37.74
2023-11-12T14:50:09.620Z,37.94
2023-11-12T14:52:42.904Z,38.21
2023-11-12T14:55:24.436Z,38.26
2023-11-12T14:57:58.395Z,38.43
2023-11-12T15:00:30.823Z,38.29
2023-11-12T15:03:06.257Z,38.34
2023-11-12T15:05:38.584Z,38.36
2023-11-12T15:08:10.565Z,38.30
2023-11-12T15:10:43.317Z,38.43
2023-11-12T15:13:14.246Z,38.65
2023-11-12T15:15:45.861Z,38.83
2023-11-12T15:18:17.414Z,39.12
2023-11-12T15:20:48.406Z,39.24
2023-11-12T15:23:19.662Z,39.44
2023-11-12T15:25:51.722Z,39.59
2023-11-12T15:28:24.254Z,39.75
2023-11-12T15:30:55.678Z,39.97
2023-11-12T15:33:27.035Z,40.03
2023-11-12T15:35:58.007Z,40.15
2023-11-12T15:38:29.302Z,40.13
2023-11-12T15:41:00.461Z,40.14
2023-11-12T15:43:32.068Z,40.20
2023-11-12T15:46:04.733Z,40.18
2023-11-12T15:48:36.263Z,40.32
2023-11-12T15:51:11.205Z,40.27
2023-11-12T15:53:42.900Z,40.42
2023-11-12T15:56:16.384Z,40.35
2023-11-12T15:58:47.428Z,40.45
2023-11-12T16:01:18.880Z,40.68
2023-11-12T16:03:50.659Z,40.63
2023-11-12T16:06:22.081Z,40.79
2023-11-12T16:08:56.507Z,40.86
2023-11-12T16:11:30.336Z,40.89
2023-11-12T16:14:02.209Z,41.01
2023-11-12T16:16:33.442Z,41.12
2023-11-12T16:19:05.900Z,41.17
2023-11-12T16:21:37.338Z,41.26
2023-11-12T16:24:11.459Z,41.39
2023-11-12T16:26:43.281Z,41.31
2023-11-12T16:29:14.479Z,41.54
2023-11-12T16:31:46.029Z,41.58
2023-11-12T16:34:17.057Z,41.70
2023-11-12T16:36:49.343Z,41.79
2023-11-12T16:39:21.143Z,41.75
2023-11-12T16:41:52.033Z,41.80
2023-11-12T16:44:24.565Z,41.92
2023-11-12T16:46:55.799Z,41.79
2023-11-12T16:49:27.646Z,41.76
2023-11-12T16:51:59.329Z,41.78
2023-11-12T16:54:30.273Z,41.87
2023-11-12T16:57:02.117Z,41.92
2023-11-12T16:59:33.514Z,42.02
2023-11-12T17:02:04.923Z,42.22
2023-11-12T17:04:36.285Z,42.34
2023-11-12T17:07:09.872Z,42.22
2023-11-12T17:09:41.941Z,42.37
2023-11-12T17:12:14.062Z,42.47
2023-11-12T17:14:45.623Z,42.43
2023-11-12T17:17:17.090Z,42.61
2023-11-12T17:19:49.440Z,42.54
2023-11-12T17:22:22.304Z,42.80
2023-11-12T17:24:54.666Z,44.03
2023-11-12T17:27:26.565Z,42.81
2023-11-12T17:29:58.055Z,42.73
2023-11-12T17:32:29.066Z,42.87
2023-11-12T17:35:00.669Z,42.65
2023-11-12T17:37:31.749Z,42.64
2023-11-12T17:40:06.452Z,42.70
2023-11-12T17:42:38.585Z,42.81
2023-11-12T17:45:12.460Z,42.78
2023-11-12T17:47:43.658Z,42.86
2023-11-12T17:50:15.240Z,42.96
2023-11-12T17:52:46.865Z,43.05
2023-11-12T17:55:18.731Z,43.10
2023-11-12T17:57:50.616Z,43.22
2023-11-12T18:00:23.190Z,43.15
2023-11-12T18:02:56.604Z,43.24
2023-11-12T18:05:28.223Z,43.38
2023-11-12T18:07:59.641Z,43.37
2023-11-12T18:10:32.434Z,43.47
2023-11-12T18:13:04.039Z,43.42
2023-11-12T18:15:35.401Z,43.61
2023-11-12T18:18:07.223Z,43.55
2023-11-12T18:20:38.283Z,43.75
2023-11-12T18:23:09.566Z,43.80
2023-11-12T18:25:40.621Z,43.84
2023-11-12T18:28:12.103Z,43.80
2023-11-12T18:30:48.827Z,43.79
2023-11-12T18:33:21.255Z,43.87
2023-11-12T18:35:52.482Z,43.97
2023-11-12T18:38:23.372Z,44.28
2023-11-12T18:40:54.894Z,44.23
2023-11-12T18:43:26.323Z,44.34
2023-11-12T18:46:02.063Z,44.30
2023-11-12T18:48:33.570Z,44.34
2023-11-12T18:51:05.326Z,44.48
2023-11-12T18:53:36.723Z,44.58
2023-11-12T18:56:11.521Z,44.72
2023-11-12T18:58:43.568Z,44.72
2023-11-12T19:01:14.698Z,44.86
2023-11-12T19:03:47.334Z,44.90
2023-11-12T19:06:18.910Z,44.95
2023-11-12T19:08:50.150Z,44.97
2023-11-12T19:11:21.261Z,45.01
2023-11-12T19:13:52.486Z,45.28
2023-11-12T19:16:23.936Z,45.12
2023-11-12T19:18:59.980Z,45.31
2023-11-12T19:21:31.578Z,45.37
2023-11-12T19:24:04.165Z,45.42
2023-11-12T19:26:36.193Z,45.75
2023-11-12T19:29:07.665Z,45.82
2023-11-12T19:31:39.246Z,45.79
2023-11-12T19:34:11.832Z,45.76
2023-11-12T19:36:44.218Z,45.73
2023-11-12T19:39:15.487Z,45.94
2023-11-12T19:41:46.943Z,45.88
2023-11-12T19:44:20.925Z,45.86
2023-11-12T19:46:52.151Z,45.91
2023-11-12T19:49:23.871Z,45.79
2023-11-12T19:51:55.047Z,45.98
2023-11-12T19:54:26.183Z,46.10
2023-11-12T19:56:57.312Z,45.98
2023-11-12T19:59:29.861Z,46.08
2023-11-12T20:02:01.254Z,46.08
2023-11-12T20:04:32.624Z,46.30
2023-11-12T20:07:04.992Z,46.39
2023-11-12T20:09:38.243Z,46.32
2023-11-12T20:12:13.671Z,46.45
2023-11-12T20:14:45.605Z,46.47
2023-11-12T20:17:16.901Z,46.51
2023-11-12T20:19:47.900Z,46.59
2023-11-12T20:22:19.352Z,46.75
2023-11-12T20:24:51.378Z,46.86
2023-11-12T20:27:22.564Z,46.90
2023-11-12T20:29:58.042Z,46.95
2023-11-12T20:32:30.283Z,47.14
2023-11-12T20:35:01.445Z,47.31
2023-11-12T20:37:32.396Z,47.32
2023-11-12T20:40:08.862Z,47.37
2023-11-12T20:42:42.966Z,47.37
2023-11-12T20:45:18.329Z,47.56
2023-11-12T20:47:53.549Z,47.72
2023-11-12T20:50:25.014Z,47.52
2023-11-12T20:52:57.699Z,47.58
2023-11-12T20:55:28.999Z,47.66
2023-11-12T20:58:00.151Z,47.70
2023-11-12T21:00:32.344Z,47.71
2023-11-12T21:03:03.547Z,47.73
2023-11-12T21:05:36.528Z,47.90
2023-11-12T21:08:08.286Z,47.86
2023-11-12T21:10:39.706Z,47.93
2023-11-12T21:13:11.246Z,47.94
2023-11-12T21:15:44.106Z,47.98
2023-11-12T21:18:15.562Z,48.07
2023-11-12T21:20:47.052Z,48.09
2023-11-12T21:23:18.151Z,48.23
2023-11-12T21:25:53.371Z,48.26
2023-11-12T21:28:24.735Z,48.24
2023-11-12T21:30:56.705Z,48.32
2023-11-12T21:33:27.885Z,48.39
2023-11-12T21:36:00.587Z,48.57
2023-11-12T21:38:32.010Z,48.52
2023-11-12T21:41:03.037Z,48.58
2023-11-12T21:43:35.890Z,48.77
2023-11-12T21:46:08.761Z,48.85
2023-11-12T21:48:40.347Z,48.75
2023-11-12T21:51:11.881Z,48.83
2023-11-12T21:53:43.138Z,48.88
2023-11-12T21:56:16.564Z,48.86
2023-11-12T21:58:47.477Z,49.06
2023-11-12T22:01:20.092Z,48.89
2023-11-12T22:03:51.806Z,49.02
2023-11-12T22:06:23.534Z,49.10
2023-11-12T22:08:56.316Z,49.21
2023-11-12T22:11:27.367Z,49.24
2023-11-12T22:13:58.458Z,49.60
2023-11-12T22:16:29.422Z,49.26
2023-11-12T22:19:01.067Z,49.25
2023-11-12T22:21:32.428Z,49.40
2023-11-12T22:24:03.589Z,49.49
2023-11-12T22:26:35.257Z,49.49
2023-11-12T22:29:07.516Z,49.57
2023-11-12T22:31:38.662Z,49.66
2023-11-12T22:34:09.878Z,49.76
2023-11-12T22:36:42.035Z,49.78
2023-11-12T22:39:13.627Z,49.82
2023-11-12T22:41:44.646Z,49.89
2023-11-12T22:44:16.200Z,50.02
2023-11-12T22:46:51.585Z,50.07
2023-11-12T22:49:22.933Z,50.27
2023-11-12T22:51:54.089Z,50.16
2023-11-12T22:54:25.529Z,50.25
2023-11-12T22:56:56.563Z,50.27
2023-11-12T22:59:27.632Z,50.39
2023-11-12T23:01:59.127Z,50.42
2023-11-12T23:04:30.660Z,50.48
2023-11-12T23:07:02.493Z,50.52
2023-11-12T23:09:35.599Z,50.60
2023-11-12T23:12:09.929Z,50.62
2023-11-12T23:14:41.227Z,50.76
2023-11-12T23:17:14.211Z,50.77
2023-11-12T23:19:45.553Z,50.80
2023-11-12T23:22:16.992Z,50.93
2023-11-12T23:24:48.438Z,50.99
2023-11-12T23:27:19.919Z,51.05
2023-11-12T23:29:51.155Z,51.09
2023-11-12T23:32:22.737Z,51.29
2023-11-12T23:34:54.133Z,51.30
2023-11-12T23:37:25.346Z,51.43
2023-11-12T23:39:57.010Z,51.46
2023-11-12T23:42:28.628Z,51.53
2023-11-12T23:44:59.605Z,51.46
2023-11-12T23:47:30.756Z,51.52
2023-11-12T23:50:02.041Z,51.69
2023-11-12T23:52:33.183Z,51.63
2023-11-12T23:55:06.914Z,51.68
2023-11-12T23:57:39.677Z,51.72
